Terminal Aerodrome Forecast
Issued by NWS

Current Version | Previous Version | Text Only | Print | Product List | Glossary On
Versions: 1 2 3 4 5 6 7 8 9 10 11 12 13 14 15
000
FTUS42 TJSJ 291732
TAFJPS
TAF
TJPS 291732Z 2918/3018 13010KT P6SM VCSH SCT025 BKN050
     FM292300 05005KT P6SM FEW060
     FM301400 13010KT P6SM VCSH SCT025 SCT050
      AMD NOT SKED TIL 300300=

USA.gov is the U.S. government's official web portal to all federal, state and local government web resources and services.